createdAt,value
2018-05-18T00:02:02.872Z,9.10
2018-05-18T00:04:30.776Z,9.10
2018-05-18T00:06:58.304Z,9.10
2018-05-18T00:09:26.711Z,9.10
2018-05-18T00:11:54.258Z,9.10
2018-05-18T00:14:21.830Z,9.10
2018-05-18T00:16:49.357Z,9.10
2018-05-18T00:19:17.760Z,9.10
2018-05-18T00:21:45.287Z,9.10
2018-05-18T00:24:13.714Z,9.10
2018-05-18T00:26:41.249Z,9.10
2018-05-18T00:29:08.758Z,9.10
2018-05-18T00:31:36.294Z,9.10
2018-05-18T00:34:03.942Z,9.10
2018-05-18T00:36:31.502Z,9.10
2018-05-18T00:38:59.040Z,9.10
2018-05-18T00:41:26.554Z,9.10
2018-05-18T00:43:54.128Z,9.10
2018-05-18T00:46:21.662Z,9.20
2018-05-18T00:48:49.192Z,9.10
2018-05-18T00:51:16.704Z,9.10
2018-05-18T00:53:44.235Z,9.20
2018-05-18T00:56:11.758Z,9.10
2018-05-18T00:58:39.280Z,9.10
2018-05-18T01:01:06.792Z,9.10
2018-05-18T01:03:34.331Z,9.20
2018-05-18T01:06:01.872Z,9.10
2018-05-18T01:08:29.398Z,9.10
2018-05-18T01:10:56.942Z,9.10
2018-05-18T01:13:24.466Z,9.10
2018-05-18T01:15:52.005Z,9.10
2018-05-18T01:18:20.300Z,9.10
2018-05-18T01:20:47.823Z,9.10
2018-05-18T01:23:15.339Z,9.20
2018-05-18T01:25:42.842Z,9.20
2018-05-18T01:28:11.122Z,9.20
2018-05-18T01:30:39.404Z,9.20
2018-05-18T01:33:07.698Z,9.10
2018-05-18T01:35:35.244Z,9.10
2018-05-18T01:38:02.795Z,9.10
2018-05-18T01:40:31.270Z,9.10
2018-05-18T01:42:59.562Z,9.10
2018-05-18T01:45:27.224Z,9.10
2018-05-18T01:47:54.796Z,9.10
2018-05-18T01:50:22.308Z,9.10
2018-05-18T01:52:49.838Z,9.10
2018-05-18T01:55:17.579Z,9.10
2018-05-18T01:57:45.224Z,9.10
2018-05-18T02:00:12.751Z,9.10
2018-05-18T02:02:40.288Z,9.10
2018-05-18T02:05:07.816Z,9.10
2018-05-18T02:07:35.482Z,9.00
2018-05-18T02:10:03.021Z,9.00
2018-05-18T02:12:30.771Z,9.00
2018-05-18T02:14:58.306Z,9.00
2018-05-18T02:17:25.835Z,9.00
2018-05-18T02:19:53.354Z,9.00
2018-05-18T02:22:21.662Z,9.00
2018-05-18T02:24:49.202Z,9.00
2018-05-18T02:27:16.725Z,9.00
2018-05-18T02:29:44.484Z,8.90
2018-05-18T02:32:12.795Z,8.90
2018-05-18T02:34:40.360Z,8.90
2018-05-18T02:37:07.888Z,8.90
2018-05-18T02:39:36.190Z,9.00
2018-05-18T02:42:03.714Z,8.90
2018-05-18T02:44:31.231Z,8.90
2018-05-18T02:46:58.768Z,8.90
2018-05-18T02:49:27.221Z,8.90
2018-05-18T02:51:54.779Z,8.90
2018-05-18T02:54:22.324Z,8.90
2018-05-18T02:56:49.824Z,8.90
2018-05-18T02:59:17.348Z,8.90
2018-05-18T03:01:46.477Z,8.90
2018-05-18T03:04:14.034Z,8.80
2018-05-18T03:06:42.332Z,8.90
2018-05-18T03:09:09.869Z,8.80
2018-05-18T03:11:37.394Z,8.90
2018-05-18T03:14:04.934Z,8.90
2018-05-18T03:16:32.453Z,8.90
2018-05-18T03:18:59.971Z,8.90
2018-05-18T03:21:27.670Z,8.90
2018-05-18T03:23:55.189Z,8.80
2018-05-18T03:26:22.746Z,8.80
2018-05-18T03:28:51.076Z,8.80
2018-05-18T03:31:18.634Z,8.80
2018-05-18T03:33:46.163Z,8.80
2018-05-18T03:36:14.467Z,8.80
2018-05-18T03:38:42.024Z,8.80
2018-05-18T03:41:09.536Z,8.80
2018-05-18T03:43:37.201Z,8.80
2018-05-18T03:46:04.809Z,8.80
2018-05-18T03:48:32.348Z,8.80
2018-05-18T03:51:00.641Z,8.70
2018-05-18T03:53:28.184Z,8.80
2018-05-18T03:55:55.751Z,8.70
2018-05-18T03:58:23.308Z,8.70
2018-05-18T04:00:50.858Z,8.80
2018-05-18T04:03:30.254Z,8.80
2018-05-18T04:06:09.486Z,8.80
2018-05-18T04:08:52.551Z,8.80
2018-05-18T04:11:20.853Z,8.80
2018-05-18T04:13:48.422Z,8.80
2018-05-18T04:16:15.961Z,8.80
2018-05-18T04:18:43.517Z,8.90
2018-05-18T04:21:11.062Z,8.90
2018-05-18T04:23:38.590Z,8.90
2018-05-18T04:26:06.186Z,8.90
2018-05-18T04:28:33.706Z,8.90
2018-05-18T04:31:01.230Z,8.90
2018-05-18T04:33:28.748Z,8.90
2018-05-18T04:35:57.237Z,8.80
2018-05-18T04:38:24.765Z,8.80
2018-05-18T04:40:52.344Z,8.80
2018-05-18T04:43:20.817Z,8.80
2018-05-18T04:45:49.147Z,8.80
2018-05-18T04:48:16.690Z,8.80
2018-05-18T04:50:44.208Z,8.90
2018-05-18T04:53:11.743Z,8.80
2018-05-18T04:55:39.273Z,8.80
2018-05-18T04:58:06.796Z,8.80
2018-05-18T05:00:35.095Z,8.80
2018-05-18T05:03:02.650Z,8.80
2018-05-18T05:05:30.263Z,8.80
2018-05-18T05:07:57.732Z,8.80
2018-05-18T05:10:25.249Z,8.90
2018-05-18T05:12:52.774Z,8.80
2018-05-18T05:15:20.296Z,8.90
2018-05-18T05:17:48.042Z,8.90
2018-05-18T05:20:15.677Z,8.90
2018-05-18T05:22:43.234Z,8.90
2018-05-18T05:25:10.758Z,8.90
2018-05-18T05:27:38.300Z,9.00
2018-05-18T05:30:05.828Z,9.00
2018-05-18T05:32:33.360Z,8.90
2018-05-18T05:35:00.903Z,8.90
2018-05-18T05:37:28.422Z,8.90
2018-05-18T05:39:56.716Z,9.00
2018-05-18T05:42:24.248Z,8.90
2018-05-18T05:44:51.926Z,9.00
2018-05-18T05:47:19.444Z,9.00
2018-05-18T05:49:46.979Z,9.00
2018-05-18T05:52:14.527Z,9.00
2018-05-18T05:54:42.835Z,9.00
2018-05-18T05:57:10.786Z,9.00
2018-05-18T05:59:38.304Z,9.00
2018-05-18T06:02:05.827Z,9.00
2018-05-18T06:04:33.339Z,9.00
2018-05-18T06:07:00.890Z,9.10
2018-05-18T06:09:29.180Z,9.10
2018-05-18T06:11:57.464Z,9.10
2018-05-18T06:14:25.811Z,9.10
2018-05-18T06:16:53.355Z,9.10
2018-05-18T06:19:20.925Z,9.10
2018-05-18T06:21:48.452Z,9.10
2018-05-18T06:24:15.984Z,9.20
2018-05-18T06:26:43.516Z,9.20
2018-05-18T06:29:11.833Z,9.20
2018-05-18T06:31:39.478Z,9.20
2018-05-18T06:34:07.007Z,9.20
2018-05-18T06:36:34.621Z,9.20
2018-05-18T06:39:02.143Z,9.30
2018-05-18T06:41:30.444Z,9.30
2018-05-18T06:43:57.978Z,9.30
2018-05-18T06:46:25.527Z,9.30
2018-05-18T06:48:53.820Z,9.30
2018-05-18T06:51:21.358Z,9.30
2018-05-18T06:53:48.902Z,9.30
2018-05-18T06:56:16.420Z,9.40
2018-05-18T06:58:44.056Z,9.40
2018-05-18T07:01:11.495Z,9.40
2018-05-18T07:03:39.036Z,9.40
2018-05-18T07:06:06.559Z,9.40
2018-05-18T07:08:34.386Z,9.50
2018-05-18T07:11:01.911Z,9.50
2018-05-18T07:13:29.414Z,9.50
2018-05-18T07:15:56.956Z,9.40
2018-05-18T07:18:24.485Z,9.50
2018-05-18T07:20:52.012Z,9.60
2018-05-18T07:23:19.643Z,9.60
2018-05-18T07:25:47.279Z,9.60
2018-05-18T07:28:14.829Z,9.70
2018-05-18T07:30:42.512Z,9.70
2018-05-18T07:33:10.043Z,9.60
2018-05-18T07:35:37.576Z,9.70
2018-05-18T07:38:05.168Z,9.70
2018-05-18T07:40:32.786Z,9.70
2018-05-18T07:43:01.105Z,9.80
2018-05-18T07:45:28.628Z,9.80
2018-05-18T07:47:56.250Z,9.80
2018-05-18T07:50:24.535Z,9.90
2018-05-18T07:52:52.086Z,9.90
2018-05-18T07:55:19.608Z,9.90
2018-05-18T07:57:47.139Z,9.90
2018-05-18T08:00:14.661Z,9.90
2018-05-18T08:02:42.216Z,10.00
2018-05-18T08:05:10.506Z,10.20
2018-05-18T08:07:38.013Z,10.20
2018-05-18T08:10:05.563Z,10.30
2018-05-18T08:12:33.276Z,10.30
2018-05-18T08:15:01.632Z,10.30
2018-05-18T08:17:29.197Z,10.30
2018-05-18T08:19:57.503Z,10.40
2018-05-18T08:22:25.160Z,10.40
2018-05-18T08:24:52.713Z,10.50
2018-05-18T08:27:23.173Z,10.40
2018-05-18T08:29:50.713Z,10.50
2018-05-18T08:32:18.262Z,10.50
2018-05-18T08:34:45.872Z,10.50
2018-05-18T08:37:13.403Z,10.50
2018-05-18T08:39:40.939Z,10.50
2018-05-18T08:42:08.499Z,10.60
2018-05-18T08:44:36.121Z,10.60
2018-05-18T08:47:03.651Z,10.70
2018-05-18T08:49:31.194Z,10.70
2018-05-18T08:51:58.701Z,10.80
2018-05-18T08:54:26.258Z,10.70
2018-05-18T08:56:53.798Z,10.70
2018-05-18T08:59:21.330Z,10.80
2018-05-18T09:01:48.870Z,10.80
2018-05-18T09:04:16.556Z,10.90
2018-05-18T09:06:44.416Z,10.80
2018-05-18T09:09:11.949Z,10.90
2018-05-18T09:11:39.488Z,10.90
2018-05-18T09:14:07.032Z,10.90
2018-05-18T09:16:34.564Z,11.00
2018-05-18T09:19:02.111Z,10.90
2018-05-18T09:21:29.625Z,11.00
2018-05-18T09:23:57.298Z,11.00
2018-05-18T09:26:25.657Z,11.20
2018-05-18T09:28:53.149Z,11.20
2018-05-18T09:31:20.662Z,11.30
2018-05-18T09:33:48.200Z,11.30
2018-05-18T09:36:15.742Z,11.20
2018-05-18T09:38:43.260Z,11.20
2018-05-18T09:41:11.692Z,11.30
2018-05-18T09:43:39.322Z,11.20
2018-05-18T09:46:06.864Z,11.20
2018-05-18T09:48:35.344Z,11.30
2018-05-18T09:51:02.913Z,11.30
2018-05-18T09:53:30.430Z,11.40
2018-05-18T09:55:57.946Z,11.50
2018-05-18T09:58:25.470Z,11.50
2018-05-18T10:00:53.176Z,11.60
2018-05-18T10:03:20.734Z,11.50
2018-05-18T10:05:48.275Z,11.60
2018-05-18T10:08:15.837Z,11.60
2018-05-18T10:10:43.617Z,11.70
2018-05-18T10:13:11.157Z,11.80
2018-05-18T10:15:38.699Z,11.90
2018-05-18T10:18:06.417Z,12.00
2018-05-18T10:20:33.932Z,12.00
2018-05-18T10:23:01.456Z,12.10
2018-05-18T10:25:29.111Z,12.00
2018-05-18T10:27:56.639Z,12.00
2018-05-18T10:30:31.673Z,11.90
2018-05-18T10:32:59.212Z,11.90
2018-05-18T10:35:26.733Z,12.00
2018-05-18T10:37:54.265Z,12.00
2018-05-18T10:40:21.781Z,12.00
2018-05-18T10:42:49.299Z,12.00
2018-05-18T10:45:16.888Z,12.00
2018-05-18T10:47:44.392Z,12.10
2018-05-18T10:50:11.923Z,12.20
2018-05-18T10:52:39.602Z,12.40
2018-05-18T10:55:07.131Z,12.50
2018-05-18T10:57:34.669Z,12.50
2018-05-18T11:00:02.216Z,12.50
2018-05-18T11:02:29.736Z,12.40
2018-05-18T11:04:57.287Z,12.40
2018-05-18T11:07:24.843Z,12.40
2018-05-18T11:09:52.389Z,12.40
2018-05-18T11:12:19.933Z,12.40
2018-05-18T11:14:48.221Z,12.30
2018-05-18T11:17:16.515Z,12.40
2018-05-18T11:19:44.049Z,12.40
2018-05-18T11:22:11.709Z,12.50
2018-05-18T11:24:39.271Z,12.60
2018-05-18T11:27:07.571Z,12.70
2018-05-18T11:29:35.111Z,12.70
2018-05-18T11:32:02.791Z,12.70
2018-05-18T11:34:30.315Z,12.80
2018-05-18T11:36:58.731Z,12.90
2018-05-18T11:39:26.257Z,12.90
2018-05-18T11:41:54.565Z,13.20
2018-05-18T11:44:22.195Z,13.20
2018-05-18T11:46:50.511Z,13.30
2018-05-18T11:49:18.108Z,13.20
2018-05-18T11:51:45.668Z,13.30
2018-05-18T11:54:13.193Z,13.30
2018-05-18T11:56:40.718Z,13.40
2018-05-18T11:59:08.250Z,13.40
2018-05-18T12:01:35.843Z,13.40
2018-05-18T12:04:03.441Z,13.50
2018-05-18T12:06:30.950Z,13.50
2018-05-18T12:08:59.252Z,14.00
2018-05-18T12:11:26.765Z,13.90
2018-05-18T12:13:54.305Z,14.00
2018-05-18T12:16:21.866Z,14.10
2018-05-18T12:18:49.410Z,14.20
2018-05-18T12:21:17.068Z,14.40
2018-05-18T12:23:44.600Z,14.40
2018-05-18T12:26:12.161Z,14.50
2018-05-18T12:28:39.741Z,14.70
2018-05-18T12:31:07.283Z,14.80
2018-05-18T12:33:34.834Z,14.80
2018-05-18T12:36:02.366Z,14.90
2018-05-18T12:38:29.995Z,15.00
2018-05-18T12:40:59.060Z,15.20
2018-05-18T12:43:26.628Z,15.20
2018-05-18T12:45:54.168Z,15.40
2018-05-18T12:48:21.708Z,15.50
2018-05-18T12:50:49.397Z,15.50
2018-05-18T12:53:16.920Z,15.30
2018-05-18T12:55:45.254Z,15.30
2018-05-18T12:58:12.790Z,15.30
2018-05-18T13:00:40.316Z,15.60
2018-05-18T13:03:08.624Z,15.40
2018-05-18T13:05:37.568Z,15.40
2018-05-18T13:08:05.149Z,15.70
2018-05-18T13:10:32.675Z,15.50
2018-05-18T13:13:00.226Z,15.60
2018-05-18T13:15:27.763Z,15.70
2018-05-18T13:17:55.283Z,15.60
2018-05-18T13:20:22.805Z,15.50
2018-05-18T13:22:50.640Z,15.50
2018-05-18T13:25:18.175Z,15.80
2018-05-18T13:27:45.726Z,16.20
2018-05-18T13:30:13.278Z,16.00
2018-05-18T13:32:41.690Z,16.20
2018-05-18T13:35:09.214Z,16.20
2018-05-18T13:37:37.624Z,16.50
2018-05-18T13:40:05.151Z,16.50
2018-05-18T13:42:33.468Z,16.50
2018-05-18T13:45:01.106Z,16.50
2018-05-18T13:47:28.558Z,16.10
2018-05-18T13:49:56.149Z,15.90
2018-05-18T13:52:23.672Z,16.10
2018-05-18T13:54:51.983Z,17.20
2018-05-18T13:57:19.515Z,17.10
2018-05-18T13:59:47.057Z,16.70
2018-05-18T14:02:15.499Z,16.10
2018-05-18T14:04:43.216Z,16.10
2018-05-18T14:07:10.754Z,16.40
2018-05-18T14:09:38.360Z,16.60
2018-05-18T14:12:05.942Z,16.90
2018-05-18T14:14:33.493Z,16.70
2018-05-18T14:17:01.072Z,16.80
2018-05-18T14:19:29.363Z,17.30
2018-05-18T14:21:56.900Z,17.30
2018-05-18T14:24:24.431Z,17.80
2018-05-18T14:26:51.969Z,18.20
2018-05-18T14:29:19.499Z,18.00
2018-05-18T14:31:47.327Z,18.10
2018-05-18T14:34:14.796Z,18.20
2018-05-18T14:36:42.317Z,17.80
2018-05-18T14:39:09.821Z,17.60
2018-05-18T14:41:37.357Z,17.70
2018-05-18T14:44:04.913Z,18.00
2018-05-18T14:46:32.451Z,18.30
2018-05-18T14:48:59.975Z,18.30
2018-05-18T14:51:28.887Z,18.20
2018-05-18T14:53:56.405Z,18.40
2018-05-18T14:56:23.993Z,18.20
2018-05-18T14:58:51.507Z,17.60
2018-05-18T15:01:19.052Z,17.30
2018-05-18T15:03:46.591Z,17.80
2018-05-18T15:06:14.120Z,18.20
2018-05-18T15:08:41.683Z,17.60
2018-05-18T15:11:09.309Z,17.40
2018-05-18T15:13:36.849Z,17.00
2018-05-18T15:16:04.401Z,16.80
2018-05-18T15:18:31.937Z,16.90
2018-05-18T15:20:59.469Z,16.80
2018-05-18T15:23:27.802Z,16.80
2018-05-18T15:25:55.338Z,16.90
2018-05-18T15:28:22.983Z,16.80
2018-05-18T15:30:50.529Z,17.20
2018-05-18T15:33:18.817Z,17.30
2018-05-18T15:35:47.282Z,16.80
2018-05-18T15:38:15.575Z,16.40
2018-05-18T15:40:43.091Z,16.40
2018-05-18T15:43:10.628Z,16.70
2018-05-18T15:45:38.173Z,17.10
2018-05-18T15:48:05.703Z,17.10
2018-05-18T15:50:33.252Z,16.90
2018-05-18T15:53:01.542Z,15.90
2018-05-18T15:55:29.087Z,15.90
2018-05-18T15:57:56.783Z,15.70
2018-05-18T16:00:24.307Z,15.50
2018-05-18T16:02:52.611Z,15.30
2018-05-18T16:05:20.158Z,15.30
2018-05-18T16:07:47.671Z,15.10
2018-05-18T16:10:15.334Z,15.10
2018-05-18T16:12:42.864Z,15.00
2018-05-18T16:15:10.436Z,15.10
2018-05-18T16:17:37.979Z,15.20
2018-05-18T16:20:05.505Z,15.00
2018-05-18T16:22:33.037Z,15.00
2018-05-18T16:25:00.572Z,14.80
2018-05-18T16:27:28.178Z,14.70
2018-05-18T16:29:55.768Z,14.70
2018-05-18T16:32:23.346Z,14.80
2018-05-18T16:34:50.989Z,14.70
2018-05-18T16:37:18.477Z,14.60
2018-05-18T16:39:46.013Z,14.50
2018-05-18T16:42:13.551Z,14.30
2018-05-18T16:44:41.119Z,14.20
2018-05-18T16:47:08.788Z,14.20
2018-05-18T16:49:36.332Z,14.10
2018-05-18T16:52:03.865Z,14.10
2018-05-18T16:54:31.541Z,14.10
2018-05-18T16:56:59.083Z,14.10
2018-05-18T16:59:26.684Z,14.00
2018-05-18T17:01:54.213Z,14.00
2018-05-18T17:04:21.771Z,14.00
2018-05-18T17:06:50.060Z,14.00
2018-05-18T17:09:17.597Z,14.00
2018-05-18T17:11:45.136Z,14.00
2018-05-18T17:14:12.751Z,13.90
2018-05-18T17:16:40.315Z,13.80
2018-05-18T17:19:07.850Z,13.70
2018-05-18T17:21:35.517Z,13.70
2018-05-18T17:24:03.189Z,13.60
2018-05-18T17:26:30.731Z,13.40
2018-05-18T17:28:58.262Z,13.60
2018-05-18T17:31:25.832Z,13.40
2018-05-18T17:33:54.110Z,13.30
2018-05-18T17:36:22.401Z,13.40
2018-05-18T17:38:50.680Z,13.40
2018-05-18T17:41:18.216Z,13.40
2018-05-18T17:43:45.759Z,13.30
2018-05-18T17:46:13.303Z,13.20
2018-05-18T17:48:40.857Z,13.10
2018-05-18T17:51:08.462Z,13.10
2018-05-18T17:53:36.058Z,13.00
2018-05-18T17:56:03.583Z,13.00
2018-05-18T17:58:31.165Z,13.10
2018-05-18T18:00:58.754Z,13.00
2018-05-18T18:03:26.332Z,13.00
2018-05-18T18:05:55.483Z,13.00
2018-05-18T18:08:23.115Z,12.90
2018-05-18T18:10:50.716Z,13.00
2018-05-18T18:13:18.299Z,12.90
2018-05-18T18:15:45.922Z,12.90
2018-05-18T18:18:13.688Z,12.80
2018-05-18T18:20:42.070Z,12.80
2018-05-18T18:23:09.730Z,12.70
2018-05-18T18:25:37.286Z,12.60
2018-05-18T18:28:04.867Z,12.70
2018-05-18T18:30:32.412Z,12.70
2018-05-18T18:33:00.000Z,12.70
2018-05-18T18:35:27.623Z,12.60
2018-05-18T18:37:55.196Z,12.60
2018-05-18T18:40:22.761Z,12.50
2018-05-18T18:42:50.405Z,12.40
2018-05-18T18:45:17.931Z,12.40
2018-05-18T18:47:46.329Z,12.40
2018-05-18T18:50:13.893Z,12.30
2018-05-18T18:52:41.423Z,12.20
2018-05-18T18:55:08.938Z,12.30
2018-05-18T18:57:36.483Z,12.20
2018-05-18T19:00:04.375Z,12.10
2018-05-18T19:02:31.901Z,12.10
2018-05-18T19:04:59.440Z,12.00
2018-05-18T19:07:27.782Z,12.00
2018-05-18T19:09:56.077Z,12.00
2018-05-18T19:12:23.619Z,12.00
2018-05-18T19:14:51.156Z,11.90
2018-05-18T19:17:18.716Z,11.90
2018-05-18T19:19:46.266Z,11.80
2018-05-18T19:22:13.772Z,11.80
2018-05-18T19:24:41.296Z,11.90
2018-05-18T19:27:08.834Z,11.80
2018-05-18T19:29:36.441Z,11.80
2018-05-18T19:32:03.918Z,11.90
2018-05-18T19:34:31.476Z,11.90
2018-05-18T19:36:59.009Z,11.80
2018-05-18T19:39:27.310Z,11.80
2018-05-18T19:41:55.624Z,11.80
2018-05-18T19:44:23.156Z,11.80
2018-05-18T19:46:50.687Z,11.80
2018-05-18T19:49:18.260Z,11.90
2018-05-18T19:51:45.794Z,11.80
2018-05-18T19:54:13.319Z,11.80
2018-05-18T19:56:40.837Z,11.90
2018-05-18T19:59:08.373Z,11.90
2018-05-18T20:01:35.919Z,11.80
2018-05-18T20:04:04.965Z,11.80
2018-05-18T20:06:32.558Z,11.80
2018-05-18T20:09:00.089Z,11.80
2018-05-18T20:11:27.680Z,11.70
2018-05-18T20:13:55.254Z,11.70
2018-05-18T20:16:22.806Z,11.70
2018-05-18T20:18:50.426Z,11.60
2018-05-18T20:21:17.964Z,11.60
2018-05-18T20:23:46.298Z,11.70
2018-05-18T20:26:13.834Z,11.70
2018-05-18T20:28:41.369Z,11.70
2018-05-18T20:31:08.928Z,11.70
2018-05-18T20:33:36.575Z,11.70
2018-05-18T20:36:04.124Z,11.70
2018-05-18T20:38:32.428Z,11.70
2018-05-18T20:40:59.993Z,11.70
2018-05-18T20:43:27.876Z,11.70
2018-05-18T20:45:55.689Z,11.70
2018-05-18T20:48:23.470Z,11.60
2018-05-18T20:50:51.833Z,11.70
2018-05-18T20:53:19.475Z,11.60
2018-05-18T20:55:47.125Z,11.70
2018-05-18T20:58:14.907Z,11.60
2018-05-18T21:00:43.243Z,11.60
2018-05-18T21:03:10.817Z,11.60
2018-05-18T21:05:38.413Z,11.60
2018-05-18T21:08:05.963Z,11.50
2018-05-18T21:10:34.975Z,11.50
2018-05-18T21:13:02.775Z,11.50
2018-05-18T21:15:30.403Z,11.50
2018-05-18T21:17:58.712Z,11.50
2018-05-18T21:20:26.231Z,11.50
2018-05-18T21:22:53.779Z,11.60
2018-05-18T21:25:21.324Z,11.60
2018-05-18T21:27:48.861Z,11.60
2018-05-18T21:30:16.710Z,11.50
2018-05-18T21:32:44.430Z,11.50
2018-05-18T21:35:12.779Z,11.60
2018-05-18T21:37:40.819Z,11.60
2018-05-18T21:40:08.370Z,11.60
2018-05-18T21:42:35.908Z,11.60
2018-05-18T21:45:03.458Z,11.50
2018-05-18T21:47:31.247Z,11.50
2018-05-18T21:49:59.534Z,11.60
2018-05-18T21:52:27.137Z,11.50
2018-05-18T21:54:54.711Z,11.60
2018-05-18T21:57:22.259Z,11.60
2018-05-18T21:59:49.881Z,11.60
2018-05-18T22:02:17.419Z,11.60
2018-05-18T22:04:45.049Z,11.60
2018-05-18T22:07:13.613Z,11.60
2018-05-18T22:09:41.207Z,11.60
2018-05-18T22:12:09.715Z,11.50
2018-05-18T22:14:37.301Z,11.50
2018-05-18T22:17:04.896Z,11.50
2018-05-18T22:19:32.507Z,11.50
2018-05-18T22:22:00.258Z,11.50
2018-05-18T22:24:28.012Z,11.50
2018-05-18T22:26:55.549Z,11.50
2018-05-18T22:29:23.285Z,11.40
2018-05-18T22:31:50.805Z,11.40
2018-05-18T22:34:18.327Z,11.40
2018-05-18T22:36:45.955Z,11.40
2018-05-18T22:39:14.179Z,11.40
2018-05-18T22:41:42.476Z,11.40
2018-05-18T22:44:10.757Z,11.40
2018-05-18T22:46:38.268Z,11.40
2018-05-18T22:49:05.801Z,11.40
2018-05-18T22:51:33.338Z,11.40
2018-05-18T22:54:00.971Z,11.40
2018-05-18T22:56:28.509Z,11.30
2018-05-18T22:58:56.038Z,11.30
2018-05-18T23:01:23.568Z,11.30
2018-05-18T23:03:51.194Z,11.30
2018-05-18T23:06:19.512Z,11.40
2018-05-18T23:08:47.027Z,11.30
2018-05-18T23:11:14.557Z,11.40
2018-05-18T23:13:42.105Z,11.40
2018-05-18T23:16:09.640Z,11.40
2018-05-18T23:18:37.165Z,11.30
2018-05-18T23:21:05.583Z,11.30
2018-05-18T23:23:33.124Z,11.30
2018-05-18T23:26:00.695Z,11.40
2018-05-18T23:28:28.225Z,11.30
2018-05-18T23:30:55.774Z,11.20
2018-05-18T23:33:23.295Z,11.20
2018-05-18T23:35:50.839Z,11.20
2018-05-18T23:38:18.583Z,11.20
2018-05-18T23:40:46.242Z,11.20
2018-05-18T23:43:13.782Z,11.10
2018-05-18T23:45:41.383Z,11.10
2018-05-18T23:48:08.932Z,11.10
2018-05-18T23:50:36.489Z,11.10
2018-05-18T23:53:04.031Z,11.10
2018-05-18T23:55:31.560Z,11.10
2018-05-18T23:57:59.252Z,11.10
